sensor_id;sensor_type;location;lat;lon;timestamp;pressure;altitude;pressure_sealevel;temperature;humidity
20160;BME280;50187;50.492;12.134;2023-04-02T00:00:16;96556.09;;;20.02;37.35
20160;BME280;50187;50.492;12.134;2023-04-02T00:03:06;96553.78;;;19.99;37.61
20160;BME280;50187;50.492;12.134;2023-04-02T00:05:54;96552.94;;;19.98;37.61
20160;BME280;50187;50.492;12.134;2023-04-02T00:08:40;96559.16;;;19.99;37.61
20160;BME280;50187;50.492;12.134;2023-04-02T00:11:48;96563.75;;;19.98;37.50
20160;BME280;50187;50.492;12.134;2023-04-02T00:14:34;96565.59;;;19.98;37.60
20160;BME280;50187;50.492;12.134;2023-04-02T00:17:22;96576.13;;;19.93;37.66
20160;BME280;50187;50.492;12.134;2023-04-02T00:20:15;96582.34;;;19.93;37.53
20160;BME280;50187;50.492;12.134;2023-04-02T00:23:02;96573.13;;;19.87;37.62
20160;BME280;50187;50.492;12.134;2023-04-02T00:25:47;96582.72;;;19.90;37.79
20160;BME280;50187;50.492;12.134;2023-04-02T00:28:32;96579.72;;;19.85;37.68
20160;BME280;50187;50.492;12.134;2023-04-02T00:31:21;96585.22;;;19.92;37.87
20160;BME280;50187;50.492;12.134;2023-04-02T00:34:11;96592.31;;;19.93;37.56
20160;BME280;50187;50.492;12.134;2023-04-02T00:36:58;96586.06;;;19.92;37.54
20160;BME280;50187;50.492;12.134;2023-04-02T00:39:44;96609.13;;;19.95;37.62
20160;BME280;50187;50.492;12.134;2023-04-02T00:42:30;96606.44;;;19.95;37.57
20160;BME280;50187;50.492;12.134;2023-04-02T00:45:23;96596.66;;;19.94;37.67
20160;BME280;50187;50.492;12.134;2023-04-02T00:48:23;96597.72;;;19.93;37.52
20160;BME280;50187;50.492;12.134;2023-04-02T00:51:31;96604.50;;;19.88;37.54
20160;BME280;50187;50.492;12.134;2023-04-02T00:54:20;96603.63;;;19.88;37.66
20160;BME280;50187;50.492;12.134;2023-04-02T00:57:14;96602.44;;;19.90;37.52
20160;BME280;50187;50.492;12.134;2023-04-02T01:06:07;96619.47;;;19.91;37.59
20160;BME280;50187;50.492;12.134;2023-04-02T01:09:21;96619.28;;;19.93;37.42
20160;BME280;50187;50.492;12.134;2023-04-02T01:15:52;96627.47;;;19.84;37.41
20160;BME280;50187;50.492;12.134;2023-04-02T01:21:39;96643.66;;;19.84;37.47
20160;BME280;50187;50.492;12.134;2023-04-02T01:24:31;96636.75;;;19.82;37.54
20160;BME280;50187;50.492;12.134;2023-04-02T01:27:27;96648.00;;;19.85;37.69
20160;BME280;50187;50.492;12.134;2023-04-02T01:30:16;96654.28;;;19.86;37.54
20160;BME280;50187;50.492;12.134;2023-04-02T01:33:02;96653.97;;;19.81;37.64
20160;BME280;50187;50.492;12.134;2023-04-02T01:35:58;96670.47;;;19.86;37.60
20160;BME280;50187;50.492;12.134;2023-04-02T01:39:01;96671.66;;;19.83;37.63
20160;BME280;50187;50.492;12.134;2023-04-02T01:42:23;96683.47;;;19.82;37.75
20160;BME280;50187;50.492;12.134;2023-04-02T01:45:14;96686.16;;;19.82;37.52
20160;BME280;50187;50.492;12.134;2023-04-02T01:48:04;96702.16;;;19.84;37.53
20160;BME280;50187;50.492;12.134;2023-04-02T01:50:52;96703.03;;;19.84;37.57
20160;BME280;50187;50.492;12.134;2023-04-02T01:53:39;96706.56;;;19.85;37.37
20160;BME280;50187;50.492;12.134;2023-04-02T01:56:26;96720.53;;;19.88;37.29
20160;BME280;50187;50.492;12.134;2023-04-02T01:59:13;96713.28;;;19.89;37.34
20160;BME280;50187;50.492;12.134;2023-04-02T02:02:08;96720.88;;;19.85;37.58
20160;BME280;50187;50.492;12.134;2023-04-02T02:04:57;96717.72;;;19.82;37.47
20160;BME280;50187;50.492;12.134;2023-04-02T02:07:44;96722.28;;;19.81;37.50
20160;BME280;50187;50.492;12.134;2023-04-02T02:10:34;96740.06;;;19.90;37.54
20160;BME280;50187;50.492;12.134;2023-04-02T02:13:21;96747.16;;;19.92;37.16
20160;BME280;50187;50.492;12.134;2023-04-02T02:16:11;96756.25;;;19.90;37.26
20160;BME280;50187;50.492;12.134;2023-04-02T02:19:02;96746.84;;;19.86;37.40
20160;BME280;50187;50.492;12.134;2023-04-02T02:21:51;96752.94;;;19.88;37.23
20160;BME280;50187;50.492;12.134;2023-04-02T02:24:37;96763.22;;;19.85;37.23
20160;BME280;50187;50.492;12.134;2023-04-02T02:30:23;96764.06;;;19.85;37.18
20160;BME280;50187;50.492;12.134;2023-04-02T02:33:29;96772.47;;;19.90;37.17
20160;BME280;50187;50.492;12.134;2023-04-02T02:36:25;96783.25;;;19.90;37.15
20160;BME280;50187;50.492;12.134;2023-04-02T02:39:36;96787.81;;;19.90;37.34
20160;BME280;50187;50.492;12.134;2023-04-02T02:42:35;96795.25;;;19.88;37.40
20160;BME280;50187;50.492;12.134;2023-04-02T02:45:26;96805.41;;;19.86;37.19
20160;BME280;50187;50.492;12.134;2023-04-02T02:48:17;96804.84;;;19.90;37.38
20160;BME280;50187;50.492;12.134;2023-04-02T02:51:10;96811.94;;;19.92;37.14
20160;BME280;50187;50.492;12.134;2023-04-02T02:54:03;96814.31;;;19.86;37.17
20160;BME280;50187;50.492;12.134;2023-04-02T02:56:56;96824.41;;;19.93;37.15
20160;BME280;50187;50.492;12.134;2023-04-02T02:59:43;96829.97;;;19.91;37.13
20160;BME280;50187;50.492;12.134;2023-04-02T03:02:34;96823.91;;;19.89;37.30
20160;BME280;50187;50.492;12.134;2023-04-02T03:05:25;96834.72;;;19.89;37.32
20160;BME280;50187;50.492;12.134;2023-04-02T03:08:24;96837.41;;;19.89;37.22
20160;BME280;50187;50.492;12.134;2023-04-02T03:11:25;96846.84;;;19.93;37.12
20160;BME280;50187;50.492;12.134;2023-04-02T03:14:27;96853.94;;;19.94;37.06
20160;BME280;50187;50.492;12.134;2023-04-02T03:17:28;96854.75;;;19.95;37.19
20160;BME280;50187;50.492;12.134;2023-04-02T03:20:30;96865.41;;;19.88;37.05
20160;BME280;50187;50.492;12.134;2023-04-02T03:23:29;96862.06;;;19.86;37.09
20160;BME280;50187;50.492;12.134;2023-04-02T03:26:21;96881.13;;;19.84;37.34
20160;BME280;50187;50.492;12.134;2023-04-02T03:29:30;96874.06;;;19.83;37.15
20160;BME280;50187;50.492;12.134;2023-04-02T03:32:31;96891.56;;;19.87;37.05
20160;BME280;50187;50.492;12.134;2023-04-02T03:38:33;96897.34;;;19.84;37.27
20160;BME280;50187;50.492;12.134;2023-04-02T03:41:30;96906.44;;;19.83;37.10
20160;BME280;50187;50.492;12.134;2023-04-02T03:44:25;96909.13;;;19.83;37.10
20160;BME280;50187;50.492;12.134;2023-04-02T03:47:18;96913.69;;;19.83;37.32
20160;BME280;50187;50.492;12.134;2023-04-02T03:50:07;96920.94;;;19.82;37.31
20160;BME280;50187;50.492;12.134;2023-04-02T03:52:57;96922.63;;;19.83;37.28
20160;BME280;50187;50.492;12.134;2023-04-02T03:55:43;96933.44;;;19.83;37.18
20160;BME280;50187;50.492;12.134;2023-04-02T03:58:40;96938.81;;;19.83;36.97
20160;BME280;50187;50.492;12.134;2023-04-02T04:01:32;96936.63;;;19.79;37.08
20160;BME280;50187;50.492;12.134;2023-04-02T04:04:20;96946.25;;;19.81;37.24
20160;BME280;50187;50.492;12.134;2023-04-02T04:07:14;96954.38;;;19.81;37.03
20160;BME280;50187;50.492;12.134;2023-04-02T04:10:05;96959.59;;;19.83;37.13
20160;BME280;50187;50.492;12.134;2023-04-02T04:12:53;96958.72;;;19.82;37.03
20160;BME280;50187;50.492;12.134;2023-04-02T04:21:28;96986.75;;;19.81;37.16
20160;BME280;50187;50.492;12.134;2023-04-02T04:24:25;96999.38;;;19.81;37.21
20160;BME280;50187;50.492;12.134;2023-04-02T04:27:30;96996.69;;;19.81;37.07
20160;BME280;50187;50.492;12.134;2023-04-02T04:30:33;97010.19;;;19.81;37.09
20160;BME280;50187;50.492;12.134;2023-04-02T04:33:31;97011.19;;;19.80;37.15
20160;BME280;50187;50.492;12.134;2023-04-02T04:36:28;97025.53;;;19.80;37.07
20160;BME280;50187;50.492;12.134;2023-04-02T04:39:30;97030.75;;;19.73;37.13
20160;BME280;50187;50.492;12.134;2023-04-02T04:42:23;97029.25;;;19.79;36.97
20160;BME280;50187;50.492;12.134;2023-04-02T04:45:40;97036.34;;;19.80;37.12
20160;BME280;50187;50.492;12.134;2023-04-02T04:48:51;97041.72;;;19.80;36.85
20160;BME280;50187;50.492;12.134;2023-04-02T04:51:50;97061.75;;;19.78;36.85
20160;BME280;50187;50.492;12.134;2023-04-02T04:54:41;97058.25;;;19.77;37.01
20160;BME280;50187;50.492;12.134;2023-04-02T04:57:32;97071.56;;;19.79;36.99
20160;BME280;50187;50.492;12.134;2023-04-02T05:03:41;97072.22;;;19.89;36.89
20160;BME280;50187;50.492;12.134;2023-04-02T05:06:44;97095.66;;;19.97;36.85
20160;BME280;50187;50.492;12.134;2023-04-02T05:09:41;97099.00;;;20.07;36.82
20160;BME280;50187;50.492;12.134;2023-04-02T05:12:43;97100.00;;;20.14;36.59
20160;BME280;50187;50.492;12.134;2023-04-02T05:15:49;97111.44;;;20.16;36.67
20160;BME280;50187;50.492;12.134;2023-04-02T05:19:16;97114.81;;;20.27;36.33
20160;BME280;50187;50.492;12.134;2023-04-02T05:22:13;97120.88;;;20.29;36.42
20160;BME280;50187;50.492;12.134;2023-04-02T05:25:30;97132.66;;;20.36;36.35
20160;BME280;50187;50.492;12.134;2023-04-02T05:28:25;97138.56;;;20.39;36.10
20160;BME280;50187;50.492;12.134;2023-04-02T05:31:17;97135.31;;;20.44;36.20
20160;BME280;50187;50.492;12.134;2023-04-02T05:34:05;97140.41;;;20.39;36.07
20160;BME280;50187;50.492;12.134;2023-04-02T05:36:50;97155.56;;;20.48;36.21
20160;BME280;50187;50.492;12.134;2023-04-02T05:39:36;97168.72;;;20.51;36.20
20160;BME280;50187;50.492;12.134;2023-04-02T05:42:31;97168.38;;;20.54;35.99
20160;BME280;50187;50.492;12.134;2023-04-02T05:45:32;97179.69;;;20.58;35.93
20160;BME280;50187;50.492;12.134;2023-04-02T05:48:26;97168.72;;;20.51;36.13
20160;BME280;50187;50.492;12.134;2023-04-02T05:51:17;97176.16;;;20.57;36.19
20160;BME280;50187;50.492;12.134;2023-04-02T05:54:14;97189.66;;;20.57;36.06
20160;BME280;50187;50.492;12.134;2023-04-02T05:57:04;97178.50;;;20.61;35.89
20160;BME280;50187;50.492;12.134;2023-04-02T05:59:55;97183.56;;;20.55;35.90
20160;BME280;50187;50.492;12.134;2023-04-02T06:02:46;97188.81;;;20.57;35.87
20160;BME280;50187;50.492;12.134;2023-04-02T06:05:41;97195.72;;;20.59;36.07
20160;BME280;50187;50.492;12.134;2023-04-02T06:08:38;97203.47;;;20.63;35.88
20160;BME280;50187;50.492;12.134;2023-04-02T06:11:30;97212.63;;;20.62;35.82
20160;BME280;50187;50.492;12.134;2023-04-02T06:14:18;97214.09;;;20.64;36.04
20160;BME280;50187;50.492;12.134;2023-04-02T06:17:05;97212.44;;;20.63;35.88
20160;BME280;50187;50.492;12.134;2023-04-02T06:19:55;97224.44;;;20.61;35.80
20160;BME280;50187;50.492;12.134;2023-04-02T06:22:43;97230.50;;;20.63;35.98
20160;BME280;50187;50.492;12.134;2023-04-02T06:25:33;97231.53;;;20.62;36.05
20160;BME280;50187;50.492;12.134;2023-04-02T06:28:32;97235.44;;;20.59;35.88
20160;BME280;50187;50.492;12.134;2023-04-02T06:31:30;97249.41;;;20.63;35.84
20160;BME280;50187;50.492;12.134;2023-04-02T06:34:24;97255.50;;;20.65;35.88
20160;BME280;50187;50.492;12.134;2023-04-02T06:37:32;97252.97;;;20.63;35.84
20160;BME280;50187;50.492;12.134;2023-04-02T06:40:43;97277.78;;;20.67;35.70
20160;BME280;50187;50.492;12.134;2023-04-02T06:43:46;97282.53;;;20.65;35.72
20160;BME280;50187;50.492;12.134;2023-04-02T06:46:43;97291.16;;;20.68;35.71
20160;BME280;50187;50.492;12.134;2023-04-02T06:49:37;97294.72;;;20.69;35.76
20160;BME280;50187;50.492;12.134;2023-04-02T06:52:37;97294.72;;;20.69;35.93
20160;BME280;50187;50.492;12.134;2023-04-02T06:55:30;97308.06;;;20.70;35.74
20160;BME280;50187;50.492;12.134;2023-04-02T06:58:18;97308.88;;;20.71;35.65
20160;BME280;50187;50.492;12.134;2023-04-02T07:01:04;97316.16;;;20.70;35.62
20160;BME280;50187;50.492;12.134;2023-04-02T07:03:56;97319.69;;;20.71;35.78
20160;BME280;50187;50.492;12.134;2023-04-02T07:06:54;97329.69;;;20.70;35.59
20160;BME280;50187;50.492;12.134;2023-04-02T07:09:42;97331.69;;;20.68;35.86
20160;BME280;50187;50.492;12.134;2023-04-02T07:12:27;97335.25;;;20.69;35.73
20160;BME280;50187;50.492;12.134;2023-04-02T07:15:17;97331.00;;;20.66;35.67
20160;BME280;50187;50.492;12.134;2023-04-02T07:18:03;97342.31;;;20.70;35.79
20160;BME280;50187;50.492;12.134;2023-04-02T07:20:49;97343.66;;;20.66;35.78
20160;BME280;50187;50.492;12.134;2023-04-02T07:23:37;97360.25;;;20.71;35.87
20160;BME280;50187;50.492;12.134;2023-04-02T07:26:24;97365.47;;;20.72;35.72
20160;BME280;50187;50.492;12.134;2023-04-02T07:29:15;97371.88;;;20.71;35.73
20160;BME280;50187;50.492;12.134;2023-04-02T07:32:00;97360.41;;;20.69;35.60
20160;BME280;50187;50.492;12.134;2023-04-02T07:34:45;97378.97;;;20.72;35.68
20160;BME280;50187;50.492;12.134;2023-04-02T07:37:31;97392.16;;;20.75;35.52
20160;BME280;50187;50.492;12.134;2023-04-02T07:40:18;97395.19;;;20.72;35.57
20160;BME280;50187;50.492;12.134;2023-04-02T07:43:05;97398.44;;;20.76;35.45
20160;BME280;50187;50.492;12.134;2023-04-02T07:45:50;97403.66;;;20.78;35.48
20160;BME280;50187;50.492;12.134;2023-04-02T07:48:36;97411.94;;;20.76;35.67
20160;BME280;50187;50.492;12.134;2023-04-02T07:51:23;97406.53;;;20.76;35.48
20160;BME280;50187;50.492;12.134;2023-04-02T07:54:08;97415.31;;;20.78;35.43
20160;BME280;50187;50.492;12.134;2023-04-02T07:56:54;97414.66;;;20.76;35.62
20160;BME280;50187;50.492;12.134;2023-04-02T07:59:39;97424.59;;;20.75;35.56
20160;BME280;50187;50.492;12.134;2023-04-02T08:02:25;97419.00;;;20.77;35.51
20160;BME280;50187;50.492;12.134;2023-04-02T08:05:10;97422.41;;;20.71;35.45
20160;BME280;50187;50.492;12.134;2023-04-02T08:07:56;97437.94;;;20.77;35.55
20160;BME280;50187;50.492;12.134;2023-04-02T08:10:41;97444.56;;;20.74;35.58
20160;BME280;50187;50.492;12.134;2023-04-02T08:13:26;97449.09;;;20.82;35.54
20160;BME280;50187;50.492;12.134;2023-04-02T08:16:11;97452.66;;;20.83;35.34
20160;BME280;50187;50.492;12.134;2023-04-02T08:18:57;97464.31;;;20.83;35.47
20160;BME280;50187;50.492;12.134;2023-04-02T08:21:43;97458.22;;;20.81;35.34
20160;BME280;50187;50.492;12.134;2023-04-02T08:24:28;97466.50;;;20.88;35.41
20160;BME280;50187;50.492;12.134;2023-04-02T08:27:13;97475.59;;;20.87;35.26
20160;BME280;50187;50.492;12.134;2023-04-02T08:29:59;97482.53;;;20.81;35.42
20160;BME280;50187;50.492;12.134;2023-04-02T08:32:44;97486.41;;;20.87;35.37
20160;BME280;50187;50.492;12.134;2023-04-02T08:35:30;97487.63;;;20.84;35.56
20160;BME280;50187;50.492;12.134;2023-04-02T08:41:03;97502.81;;;20.85;35.33
20160;BME280;50187;50.492;12.134;2023-04-02T08:44:10;97506.56;;;20.84;35.52
20160;BME280;50187;50.492;12.134;2023-04-02T08:47:03;97509.25;;;20.84;35.31
20160;BME280;50187;50.492;12.134;2023-04-02T08:49:56;97512.63;;;20.86;35.42
20160;BME280;50187;50.492;12.134;2023-04-02T08:52:42;97518.72;;;20.80;35.33
20160;BME280;50187;50.492;12.134;2023-04-02T08:55:38;97533.06;;;20.81;35.51
20160;BME280;50187;50.492;12.134;2023-04-02T08:58:39;97535.94;;;20.79;35.40
20160;BME280;50187;50.492;12.134;2023-04-02T09:04:25;97545.56;;;20.73;35.44
20160;BME280;50187;50.492;12.134;2023-04-02T09:07:13;97553.50;;;20.75;35.65
20160;BME280;50187;50.492;12.134;2023-04-02T09:10:00;97557.03;;;20.75;35.58
20160;BME280;50187;50.492;12.134;2023-04-02T09:12:50;97561.63;;;20.75;35.67
20160;BME280;50187;50.492;12.134;2023-04-02T09:15:36;97563.66;;;20.73;35.59
20160;BME280;50187;50.492;12.134;2023-04-02T09:18:21;97568.88;;;20.74;35.66
20160;BME280;50187;50.492;12.134;2023-04-02T09:21:18;97577.47;;;20.70;35.50
20160;BME280;50187;50.492;12.134;2023-04-02T09:24:10;97580.53;;;20.75;35.65
20160;BME280;50187;50.492;12.134;2023-04-02T09:26:56;97592.19;;;20.75;35.58
20160;BME280;50187;50.492;12.134;2023-04-02T09:29:44;97591.69;;;20.72;35.43
20160;BME280;50187;50.492;12.134;2023-04-02T09:32:52;97606.56;;;20.76;35.43
20160;BME280;50187;50.492;12.134;2023-04-02T09:38:36;97615.84;;;20.73;35.52
20160;BME280;50187;50.492;12.134;2023-04-02T09:41:21;97617.38;;;20.76;35.84
20160;BME280;50187;50.492;12.134;2023-04-02T09:44:18;97628.84;;;20.78;35.85
20160;BME280;50187;50.492;12.134;2023-04-02T09:47:22;97636.31;;;20.76;36.01
20160;BME280;50187;50.492;12.134;2023-04-02T09:50:13;97630.19;;;20.74;36.09
20160;BME280;50187;50.492;12.134;2023-04-02T09:53:27;97636.09;;;20.69;36.06
20160;BME280;50187;50.492;12.134;2023-04-02T09:59:15;97659.09;;;20.73;36.04
20160;BME280;50187;50.492;12.134;2023-04-02T10:02:02;97664.34;;;20.75;36.04
20160;BME280;50187;50.492;12.134;2023-04-02T10:04:48;97668.75;;;20.76;35.94
20160;BME280;50187;50.492;12.134;2023-04-02T10:07:41;97668.91;;;20.74;35.82
20160;BME280;50187;50.492;12.134;2023-04-02T10:10:35;97675.66;;;20.70;35.69
20160;BME280;50187;50.492;12.134;2023-04-02T10:13:25;97687.66;;;20.76;35.83
20160;BME280;50187;50.492;12.134;2023-04-02T10:16:17;97691.19;;;20.76;35.57
20160;BME280;50187;50.492;12.134;2023-04-02T10:22:02;97697.78;;;20.74;35.65
20160;BME280;50187;50.492;12.134;2023-04-02T10:24:49;97694.56;;;20.70;35.65
20160;BME280;50187;50.492;12.134;2023-04-02T10:27:46;97709.63;;;20.73;35.68
20160;BME280;50187;50.492;12.134;2023-04-02T10:33:36;97705.56;;;20.69;35.69
20160;BME280;50187;50.492;12.134;2023-04-02T10:39:26;97717.50;;;20.66;35.85
20160;BME280;50187;50.492;12.134;2023-04-02T10:45:48;97725.13;;;20.71;35.69
20160;BME280;50187;50.492;12.134;2023-04-02T10:48:53;97737.81;;;20.70;35.47
20160;BME280;50187;50.492;12.134;2023-04-02T10:52:08;97749.47;;;20.71;35.71
20160;BME280;50187;50.492;12.134;2023-04-02T10:55:01;97756.41;;;20.73;35.73
20160;BME280;50187;50.492;12.134;2023-04-02T10:57:50;97745.59;;;20.73;35.75
20160;BME280;50187;50.492;12.134;2023-04-02T11:00:38;97752.50;;;20.68;35.71
20160;BME280;50187;50.492;12.134;2023-04-02T11:03:48;97761.81;;;20.73;35.63
20160;BME280;50187;50.492;12.134;2023-04-02T11:06:42;97773.31;;;20.75;35.43
20160;BME280;50187;50.492;12.134;2023-04-02T11:09:31;97768.06;;;20.74;35.69
20160;BME280;50187;50.492;12.134;2023-04-02T11:12:24;97778.03;;;20.73;35.60
20160;BME280;50187;50.492;12.134;2023-04-02T11:15:17;97776.88;;;20.76;35.44
20160;BME280;50187;50.492;12.134;2023-04-02T11:18:03;97782.44;;;20.74;35.56
20160;BME280;50187;50.492;12.134;2023-04-02T11:23:37;97791.38;;;20.75;35.51
20160;BME280;50187;50.492;12.134;2023-04-02T11:29:21;97800.16;;;20.77;35.41
20160;BME280;50187;50.492;12.134;2023-04-02T11:32:25;97803.91;;;20.76;35.66
20160;BME280;50187;50.492;12.134;2023-04-02T11:35:36;97796.63;;;20.76;35.63
20160;BME280;50187;50.492;12.134;2023-04-02T11:41:11;97816.56;;;20.75;35.45
20160;BME280;50187;50.492;12.134;2023-04-02T11:43:59;97815.03;;;20.73;35.44
20160;BME280;50187;50.492;12.134;2023-04-02T11:46:45;97820.13;;;20.76;35.41
20160;BME280;50187;50.492;12.134;2023-04-02T11:52:24;97832.78;;;20.75;35.62
20160;BME280;50187;50.492;12.134;2023-04-02T11:55:23;97845.47;;;20.75;35.53
20160;BME280;50187;50.492;12.134;2023-04-02T12:11:12;97861.69;;;20.75;35.49
20160;BME280;50187;50.492;12.134;2023-04-02T12:13:59;97866.09;;;20.76;35.49
20160;BME280;50187;50.492;12.134;2023-04-02T12:16:46;97869.63;;;20.76;35.60
20160;BME280;50187;50.492;12.134;2023-04-02T12:19:31;97874.03;;;20.78;35.30
20160;BME280;50187;50.492;12.134;2023-04-02T12:22:47;97872.16;;;20.78;35.40
20160;BME280;50187;50.492;12.134;2023-04-02T12:25:36;97881.28;;;20.77;35.53
20160;BME280;50187;50.492;12.134;2023-04-02T12:28:26;97875.19;;;20.75;35.45
20160;BME280;50187;50.492;12.134;2023-04-02T12:31:19;97880.28;;;20.78;35.33
20160;BME280;50187;50.492;12.134;2023-04-02T12:34:13;97888.72;;;20.75;35.60
20160;BME280;50187;50.492;12.134;2023-04-02T12:37:02;97884.13;;;20.75;35.32
20160;BME280;50187;50.492;12.134;2023-04-02T12:39:54;97888.72;;;20.75;35.25
20160;BME280;50187;50.492;12.134;2023-04-02T12:42:39;97887.88;;;20.74;35.53
20160;BME280;50187;50.492;12.134;2023-04-02T12:45:29;97890.75;;;20.73;35.62
20160;BME280;50187;50.492;12.134;2023-04-02T12:48:17;97906.41;;;20.69;35.64
20160;BME280;50187;50.492;12.134;2023-04-02T12:51:03;97898.97;;;20.71;35.34
20160;BME280;50187;50.492;12.134;2023-04-02T12:53:50;97903.53;;;20.71;35.27
20160;BME280;50187;50.492;12.134;2023-04-02T12:56:36;97899.84;;;20.72;35.34
20160;BME280;50187;50.492;12.134;2023-04-02T12:59:33;97908.63;;;20.74;35.50
20160;BME280;50187;50.492;12.134;2023-04-02T13:02:25;97917.78;;;20.73;35.32
20160;BME280;50187;50.492;12.134;2023-04-02T13:05:11;97910.81;;;20.70;35.38
20160;BME280;50187;50.492;12.134;2023-04-02T13:07:56;97916.75;;;20.74;35.47
20160;BME280;50187;50.492;12.134;2023-04-02T13:10:41;97914.53;;;20.69;35.30
20160;BME280;50187;50.492;12.134;2023-04-02T13:13:33;97918.28;;;20.76;35.29
20160;BME280;50187;50.492;12.134;2023-04-02T13:22:02;97931.81;;;20.76;35.14
20160;BME280;50187;50.492;12.134;2023-04-02T13:24:47;97947.03;;;20.78;35.12
20160;BME280;50187;50.492;12.134;2023-04-02T13:27:32;97938.91;;;20.78;35.36
20160;BME280;50187;50.492;12.134;2023-04-02T13:30:26;97937.75;;;20.80;35.11
20160;BME280;50187;50.492;12.134;2023-04-02T13:33:12;97949.56;;;20.79;35.09
20160;BME280;50187;50.492;12.134;2023-04-02T13:35:57;97952.28;;;20.79;35.18
20160;BME280;50187;50.492;12.134;2023-04-02T13:38:43;97958.69;;;20.78;35.13
20160;BME280;50187;50.492;12.134;2023-04-02T13:41:35;97955.28;;;20.76;35.33
20160;BME280;50187;50.492;12.134;2023-04-02T13:44:25;97965.94;;;20.78;35.17
20160;BME280;50187;50.492;12.134;2023-04-02T13:47:14;97965.78;;;20.79;35.11
20160;BME280;50187;50.492;12.134;2023-04-02T13:49:59;97966.47;;;20.81;35.00
20160;BME280;50187;50.492;12.134;2023-04-02T13:52:44;97977.28;;;20.81;35.10
20160;BME280;50187;50.492;12.134;2023-04-02T13:55:34;97974.75;;;20.80;35.16
20160;BME280;50187;50.492;12.134;2023-04-02T13:58:21;97979.47;;;20.78;34.95
20160;BME280;50187;50.492;12.134;2023-04-02T14:01:07;97976.94;;;20.76;35.30
20160;BME280;50187;50.492;12.134;2023-04-02T14:03:53;97980.47;;;20.76;35.05
20160;BME280;50187;50.492;12.134;2023-04-02T14:13:23;97988.25;;;20.80;35.08
20160;BME280;50187;50.492;12.134;2023-04-02T14:22:33;98005.03;;;20.83;34.94
20160;BME280;50187;50.492;12.134;2023-04-02T14:25:36;98008.41;;;20.85;35.06
20160;BME280;50187;50.492;12.134;2023-04-02T14:31:34;98021.25;;;20.83;34.96
20160;BME280;50187;50.492;12.134;2023-04-02T14:34:43;98024.97;;;20.82;35.06
20160;BME280;50187;50.492;12.134;2023-04-02T14:37:51;98028.38;;;20.84;34.99
20160;BME280;50187;50.492;12.134;2023-04-02T14:40:45;98027.34;;;20.85;35.02
20160;BME280;50187;50.492;12.134;2023-04-02T14:43:47;98014.13;;;20.82;34.92
20160;BME280;50187;50.492;12.134;2023-04-02T14:49:25;98035.78;;;20.82;35.10
20160;BME280;50187;50.492;12.134;2023-04-02T14:52:16;98028.66;;;20.81;34.91
20160;BME280;50187;50.492;12.134;2023-04-02T14:55:05;98032.22;;;20.82;34.86
20160;BME280;50187;50.492;12.134;2023-04-02T14:57:59;98038.63;;;20.81;35.09
20160;BME280;50187;50.492;12.134;2023-04-02T15:00:54;98034.38;;;20.78;34.95
20160;BME280;50187;50.492;12.134;2023-04-02T15:03:58;98039.78;;;20.78;35.07
20160;BME280;50187;50.492;12.134;2023-04-02T15:06:49;98041.81;;;20.76;35.09
20160;BME280;50187;50.492;12.134;2023-04-02T15:09:41;98042.50;;;20.78;35.00
20160;BME280;50187;50.492;12.134;2023-04-02T15:12:32;98042.50;;;20.78;34.96
20160;BME280;50187;50.492;12.134;2023-04-02T15:16:02;98037.09;;;20.78;35.11
20160;BME280;50187;50.492;12.134;2023-04-02T15:18:36;98041.50;;;20.79;35.08
20160;BME280;50187;50.492;12.134;2023-04-02T15:24:49;98039.63;;;20.80;35.02
20160;BME280;50187;50.492;12.134;2023-04-02T15:30:53;98049.59;;;20.79;35.08
20160;BME280;50187;50.492;12.134;2023-04-02T15:33:42;98059.09;;;20.83;34.95
20160;BME280;50187;50.492;12.134;2023-04-02T15:56:51;98103.53;;;20.81;34.87
20160;BME280;50187;50.492;12.134;2023-04-02T16:00:02;98083.44;;;20.83;34.90
20160;BME280;50187;50.492;12.134;2023-04-02T16:03:15;98085.31;;;20.83;34.98
20160;BME280;50187;50.492;12.134;2023-04-02T16:06:26;98094.56;;;20.80;34.72
20160;BME280;50187;50.492;12.134;2023-04-02T16:12:13;98101.66;;;20.81;35.02
20160;BME280;50187;50.492;12.134;2023-04-02T16:15:10;98099.09;;;20.80;34.99
20160;BME280;50187;50.492;12.134;2023-04-02T16:18:02;98112.47;;;20.81;34.72
20160;BME280;50187;50.492;12.134;2023-04-02T16:20:50;98099.81;;;20.82;34.80
20160;BME280;50187;50.492;12.134;2023-04-02T16:23:38;98104.09;;;20.84;34.79
20160;BME280;50187;50.492;12.134;2023-04-02T16:36:24;98125.88;;;20.83;34.97
20160;BME280;50187;50.492;12.134;2023-04-02T16:39:29;98128.41;;;20.84;34.92
20160;BME280;50187;50.492;12.134;2023-04-02T16:42:45;98131.41;;;20.81;34.69
20160;BME280;50187;50.492;12.134;2023-04-02T16:48:53;98151.03;;;20.83;34.68
20160;BME280;50187;50.492;12.134;2023-04-02T16:58:39;98152.44;;;20.87;34.63
20160;BME280;50187;50.492;12.134;2023-04-02T17:11:07;98157.28;;;20.84;34.78
20160;BME280;50187;50.492;12.134;2023-04-02T17:14:02;98163.72;;;20.83;34.83
20160;BME280;50187;50.492;12.134;2023-04-02T17:16:58;98174.53;;;20.83;34.67
20160;BME280;50187;50.492;12.134;2023-04-02T17:19:46;98166.28;;;20.84;34.75
20160;BME280;50187;50.492;12.134;2023-04-02T17:22:34;98179.78;;;20.84;34.63
20160;BME280;50187;50.492;12.134;2023-04-02T17:25:24;98187.91;;;20.84;34.71
20160;BME280;50187;50.492;12.134;2023-04-02T17:28:14;98190.31;;;20.87;34.79
20160;BME280;50187;50.492;12.134;2023-04-02T17:30:59;98206.38;;;20.89;34.67
20160;BME280;50187;50.492;12.134;2023-04-02T17:33:45;98197.69;;;20.85;34.65
20160;BME280;50187;50.492;12.134;2023-04-02T17:36:49;98198.72;;;20.84;34.76
20160;BME280;50187;50.492;12.134;2023-04-02T17:40:20;98206.53;;;20.87;34.67
20160;BME280;50187;50.492;12.134;2023-04-02T17:46:44;98219.16;;;20.87;34.60